sensor_id;sensor_type;location;lat;lon;timestamp;P1;durP1;ratioP1;P2;durP2;ratioP2
3463;SDS011;3551;41.578;24.706;2023-05-19T04:27:40;11.20;;;7.50;;
3463;SDS011;3551;41.578;24.706;2023-05-19T04:30:07;13.10;;;6.90;;
3463;SDS011;3551;41.578;24.706;2023-05-19T04:32:35;10.60;;;7.70;;
3463;SDS011;3551;41.578;24.706;2023-05-19T04:35:03;12.40;;;7.10;;
3463;SDS011;3551;41.578;24.706;2023-05-19T04:37:31;16.07;;;8.57;;
3463;SDS011;3551;41.578;24.706;2023-05-19T04:40:01;13.43;;;8.40;;
3463;SDS011;3551;41.578;24.706;2023-05-19T04:42:30;15.60;;;10.83;;
3463;SDS011;3551;41.578;24.706;2023-05-19T04:44:59;16.00;;;11.17;;
3463;SDS011;3551;41.578;24.706;2023-05-19T04:47:27;16.10;;;10.87;;
3463;SDS011;3551;41.578;24.706;2023-05-19T04:49:54;18.57;;;10.13;;
3463;SDS011;3551;41.578;24.706;2023-05-19T04:52:21;14.87;;;9.80;;
3463;SDS011;3551;41.578;24.706;2023-05-19T04:54:48;14.37;;;9.07;;
3463;SDS011;3551;41.578;24.706;2023-05-19T04:57:15;11.67;;;7.57;;
3463;SDS011;3551;41.578;24.706;2023-05-19T04:59:42;18.23;;;7.13;;
3463;SDS011;3551;41.578;24.706;2023-05-19T05:02:11;13.10;;;6.80;;
3463;SDS011;3551;41.578;24.706;2023-05-19T05:04:39;9.40;;;6.00;;
3463;SDS011;3551;41.578;24.706;2023-05-19T05:07:10;11.07;;;6.00;;
3463;SDS011;3551;41.578;24.706;2023-05-19T05:09:37;11.80;;;7.20;;
3463;SDS011;3551;41.578;24.706;2023-05-19T05:12:05;10.20;;;6.40;;
3463;SDS011;3551;41.578;24.706;2023-05-19T05:14:33;10.43;;;6.30;;
3463;SDS011;3551;41.578;24.706;2023-05-19T05:17:01;8.57;;;6.20;;
3463;SDS011;3551;41.578;24.706;2023-05-19T05:19:30;9.93;;;6.70;;
3463;SDS011;3551;41.578;24.706;2023-05-19T05:21:57;12.43;;;6.77;;
3463;SDS011;3551;41.578;24.706;2023-05-19T05:24:24;8.67;;;6.17;;
3463;SDS011;3551;41.578;24.706;2023-05-19T05:26:52;13.40;;;5.50;;
3463;SDS011;3551;41.578;24.706;2023-05-19T05:29:20;8.40;;;5.50;;
3463;SDS011;3551;41.578;24.706;2023-05-19T05:31:47;9.90;;;6.43;;
3463;SDS011;3551;41.578;24.706;2023-05-19T05:34:14;14.13;;;5.97;;
3463;SDS011;3551;41.578;24.706;2023-05-19T05:36:42;10.43;;;6.20;;
3463;SDS011;3551;41.578;24.706;2023-05-19T05:39:09;9.27;;;5.67;;
3463;SDS011;3551;41.578;24.706;2023-05-19T05:41:36;12.90;;;5.90;;
3463;SDS011;3551;41.578;24.706;2023-05-19T05:44:03;11.70;;;6.87;;
3463;SDS011;3551;41.578;24.706;2023-05-19T05:46:30;13.00;;;6.50;;
3463;SDS011;3551;41.578;24.706;2023-05-19T05:48:58;23.93;;;7.63;;
3463;SDS011;3551;41.578;24.706;2023-05-19T05:51:27;6.70;;;5.10;;
3463;SDS011;3551;41.578;24.706;2023-05-19T05:53:58;13.33;;;6.93;;
3463;SDS011;3551;41.578;24.706;2023-05-19T05:56:27;20.17;;;14.40;;
3463;SDS011;3551;41.578;24.706;2023-05-19T05:58:55;34.37;;;23.63;;
3463;SDS011;3551;41.578;24.706;2023-05-19T06:01:22;37.97;;;22.03;;
3463;SDS011;3551;41.578;24.706;2023-05-19T06:06:24;9.50;;;6.60;;
3463;SDS011;3551;41.578;24.706;2023-05-19T06:08:54;10.67;;;7.90;;
3463;SDS011;3551;41.578;24.706;2023-05-19T06:11:22;6.87;;;5.20;;
3463;SDS011;3551;41.578;24.706;2023-05-19T06:13:49;9.03;;;6.40;;
3463;SDS011;3551;41.578;24.706;2023-05-19T06:16:16;11.83;;;8.87;;
3463;SDS011;3551;41.578;24.706;2023-05-19T06:18:43;8.57;;;5.60;;
3463;SDS011;3551;41.578;24.706;2023-05-19T06:21:10;11.90;;;6.60;;
3463;SDS011;3551;41.578;24.706;2023-05-19T06:23:42;9.63;;;5.77;;
3463;SDS011;3551;41.578;24.706;2023-05-19T06:26:12;7.60;;;5.83;;
3463;SDS011;3551;41.578;24.706;2023-05-19T06:28:40;8.63;;;5.90;;
3463;SDS011;3551;41.578;24.706;2023-05-19T06:31:07;11.57;;;7.30;;
3463;SDS011;3551;41.578;24.706;2023-05-19T06:33:34;10.40;;;6.00;;
3463;SDS011;3551;41.578;24.706;2023-05-19T06:36:01;9.57;;;5.90;;
3463;SDS011;3551;41.578;24.706;2023-05-19T06:38:28;10.50;;;7.63;;
3463;SDS011;3551;41.578;24.706;2023-05-19T06:40:55;17.13;;;6.87;;
3463;SDS011;3551;41.578;24.706;2023-05-19T06:43:22;10.03;;;6.17;;
3463;SDS011;3551;41.578;24.706;2023-05-19T06:45:51;12.10;;;6.43;;
3463;SDS011;3551;41.578;24.706;2023-05-19T06:48:18;7.40;;;5.87;;
3463;SDS011;3551;41.578;24.706;2023-05-19T06:50:45;9.43;;;6.50;;
3463;SDS011;3551;41.578;24.706;2023-05-19T06:53:12;7.30;;;5.70;;
3463;SDS011;3551;41.578;24.706;2023-05-19T06:55:39;8.10;;;5.80;;
3463;SDS011;3551;41.578;24.706;2023-05-19T06:58:06;12.13;;;5.63;;
3463;SDS011;3551;41.578;24.706;2023-05-19T07:00:34;14.63;;;6.10;;
3463;SDS011;3551;41.578;24.706;2023-05-19T07:03:03;10.17;;;6.30;;
3463;SDS011;3551;41.578;24.706;2023-05-19T07:05:30;7.70;;;5.40;;
3463;SDS011;3551;41.578;24.706;2023-05-19T07:07:56;9.13;;;5.93;;
3463;SDS011;3551;41.578;24.706;2023-05-19T07:10:23;10.20;;;7.37;;
3463;SDS011;3551;41.578;24.706;2023-05-19T07:12:50;9.37;;;5.53;;
3463;SDS011;3551;41.578;24.706;2023-05-19T07:15:17;9.37;;;6.77;;
3463;SDS011;3551;41.578;24.706;2023-05-19T07:17:44;8.20;;;6.47;;
3463;SDS011;3551;41.578;24.706;2023-05-19T07:20:13;9.50;;;6.10;;
3463;SDS011;3551;41.578;24.706;2023-05-19T07:22:41;12.50;;;6.90;;
3463;SDS011;3551;41.578;24.706;2023-05-19T07:25:08;11.13;;;7.20;;
3463;SDS011;3551;41.578;24.706;2023-05-19T07:27:35;16.37;;;6.10;;
3463;SDS011;3551;41.578;24.706;2023-05-19T07:30:02;7.10;;;5.77;;
3463;SDS011;3551;41.578;24.706;2023-05-19T07:32:29;10.53;;;6.20;;
3463;SDS011;3551;41.578;24.706;2023-05-19T07:34:56;11.90;;;6.00;;
3463;SDS011;3551;41.578;24.706;2023-05-19T07:37:25;10.80;;;6.50;;
3463;SDS011;3551;41.578;24.706;2023-05-19T07:39:52;11.73;;;6.37;;
3463;SDS011;3551;41.578;24.706;2023-05-19T07:42:19;14.27;;;6.90;;
3463;SDS011;3551;41.578;24.706;2023-05-19T07:44:45;12.27;;;6.00;;
3463;SDS011;3551;41.578;24.706;2023-05-19T07:47:12;8.93;;;6.10;;
3463;SDS011;3551;41.578;24.706;2023-05-19T07:49:39;13.30;;;6.17;;
3463;SDS011;3551;41.578;24.706;2023-05-19T07:52:06;10.83;;;5.83;;
3463;SDS011;3551;41.578;24.706;2023-05-19T07:54:35;8.73;;;5.60;;
3463;SDS011;3551;41.578;24.706;2023-05-19T07:57:02;10.80;;;6.40;;
3463;SDS011;3551;41.578;24.706;2023-05-19T07:59:29;16.50;;;6.57;;
3463;SDS011;3551;41.578;24.706;2023-05-19T08:01:56;10.27;;;5.87;;
3463;SDS011;3551;41.578;24.706;2023-05-19T08:04:24;11.80;;;6.17;;
3463;SDS011;3551;41.578;24.706;2023-05-19T08:06:51;11.60;;;6.53;;
3463;SDS011;3551;41.578;24.706;2023-05-19T08:09:18;10.40;;;6.53;;
3463;SDS011;3551;41.578;24.706;2023-05-19T08:11:46;10.80;;;6.73;;
3463;SDS011;3551;41.578;24.706;2023-05-19T08:14:14;12.50;;;8.10;;
3463;SDS011;3551;41.578;24.706;2023-05-19T08:16:41;10.20;;;7.43;;
3463;SDS011;3551;41.578;24.706;2023-05-19T08:19:09;10.17;;;7.00;;
3463;SDS011;3551;41.578;24.706;2023-05-19T08:21:36;12.30;;;6.80;;
3463;SDS011;3551;41.578;24.706;2023-05-19T08:24:03;9.33;;;6.90;;
3463;SDS011;3551;41.578;24.706;2023-05-19T08:26:30;13.03;;;6.97;;
3463;SDS011;3551;41.578;24.706;2023-05-19T08:28:59;13.00;;;6.97;;
3463;SDS011;3551;41.578;24.706;2023-05-19T08:31:29;12.57;;;7.50;;
3463;SDS011;3551;41.578;24.706;2023-05-19T08:33:55;11.50;;;7.20;;
3463;SDS011;3551;41.578;24.706;2023-05-19T08:36:22;15.83;;;7.70;;
3463;SDS011;3551;41.578;24.706;2023-05-19T08:38:50;18.03;;;8.07;;
3463;SDS011;3551;41.578;24.706;2023-05-19T08:41:17;18.13;;;8.60;;
3463;SDS011;3551;41.578;24.706;2023-05-19T08:43:43;11.10;;;7.50;;
3463;SDS011;3551;41.578;24.706;2023-05-19T08:46:12;10.80;;;6.50;;
3463;SDS011;3551;41.578;24.706;2023-05-19T08:48:41;13.30;;;7.87;;
3463;SDS011;3551;41.578;24.706;2023-05-19T08:51:10;13.80;;;9.03;;
3463;SDS011;3551;41.578;24.706;2023-05-19T08:53:44;19.70;;;9.10;;
3463;SDS011;3551;41.578;24.706;2023-05-19T08:56:17;12.17;;;7.50;;
3463;SDS011;3551;41.578;24.706;2023-05-19T08:58:47;11.87;;;8.43;;
3463;SDS011;3551;41.578;24.706;2023-05-19T09:01:18;16.67;;;9.03;;
3463;SDS011;3551;41.578;24.706;2023-05-19T09:03:47;16.67;;;8.43;;
3463;SDS011;3551;41.578;24.706;2023-05-19T09:06:14;12.30;;;7.90;;
3463;SDS011;3551;41.578;24.706;2023-05-19T09:08:41;15.13;;;8.90;;
3463;SDS011;3551;41.578;24.706;2023-05-19T09:11:09;20.50;;;9.33;;
3463;SDS011;3551;41.578;24.706;2023-05-19T09:13:36;15.03;;;8.80;;
3463;SDS011;3551;41.578;24.706;2023-05-19T09:16:04;17.63;;;8.30;;
3463;SDS011;3551;41.578;24.706;2023-05-19T09:18:33;13.43;;;8.10;;
3463;SDS011;3551;41.578;24.706;2023-05-19T09:21:07;20.20;;;9.20;;
3463;SDS011;3551;41.578;24.706;2023-05-19T09:23:37;15.73;;;8.70;;
3463;SDS011;3551;41.578;24.706;2023-05-19T09:26:04;11.93;;;8.67;;
3463;SDS011;3551;41.578;24.706;2023-05-19T09:28:32;10.40;;;8.10;;
3463;SDS011;3551;41.578;24.706;2023-05-19T09:31:00;12.73;;;8.70;;
3463;SDS011;3551;41.578;24.706;2023-05-19T09:33:28;15.40;;;8.40;;
3463;SDS011;3551;41.578;24.706;2023-05-19T09:35:57;18.50;;;9.33;;
3463;SDS011;3551;41.578;24.706;2023-05-19T09:38:24;31.47;;;10.30;;
3463;SDS011;3551;41.578;24.706;2023-05-19T09:40:51;13.10;;;9.13;;
3463;SDS011;3551;41.578;24.706;2023-05-19T09:43:19;13.10;;;8.90;;
3463;SDS011;3551;41.578;24.706;2023-05-19T09:45:46;13.00;;;8.67;;
3463;SDS011;3551;41.578;24.706;2023-05-19T09:48:15;10.77;;;8.23;;
3463;SDS011;3551;41.578;24.706;2023-05-19T09:50:42;12.83;;;9.00;;
3463;SDS011;3551;41.578;24.706;2023-05-19T09:53:12;12.50;;;8.60;;
3463;SDS011;3551;41.578;24.706;2023-05-19T09:55:40;11.93;;;7.77;;
3463;SDS011;3551;41.578;24.706;2023-05-19T09:58:08;17.60;;;9.47;;
3463;SDS011;3551;41.578;24.706;2023-05-19T10:00:35;17.53;;;9.27;;
3463;SDS011;3551;41.578;24.706;2023-05-19T10:03:03;12.20;;;7.80;;
3463;SDS011;3551;41.578;24.706;2023-05-19T10:05:30;14.83;;;8.63;;
3463;SDS011;3551;41.578;24.706;2023-05-19T10:07:58;13.07;;;9.93;;
3463;SDS011;3551;41.578;24.706;2023-05-19T10:10:28;21.77;;;10.07;;
3463;SDS011;3551;41.578;24.706;2023-05-19T10:12:55;16.97;;;9.67;;
3463;SDS011;3551;41.578;24.706;2023-05-19T10:15:25;15.17;;;9.90;;
3463;SDS011;3551;41.578;24.706;2023-05-19T10:17:53;14.40;;;9.70;;
3463;SDS011;3551;41.578;24.706;2023-05-19T10:20:21;22.43;;;10.13;;
3463;SDS011;3551;41.578;24.706;2023-05-19T10:22:48;18.20;;;9.53;;
3463;SDS011;3551;41.578;24.706;2023-05-19T10:25:15;17.00;;;10.90;;
3463;SDS011;3551;41.578;24.706;2023-05-19T10:27:50;13.80;;;9.10;;
3463;SDS011;3551;41.578;24.706;2023-05-19T10:30:25;21.03;;;11.20;;
3463;SDS011;3551;41.578;24.706;2023-05-19T10:32:54;16.67;;;9.40;;
3463;SDS011;3551;41.578;24.706;2023-05-19T10:38:36;14.30;;;9.23;;
3463;SDS011;3551;41.578;24.706;2023-05-19T10:41:09;17.13;;;9.93;;
3463;SDS011;3551;41.578;24.706;2023-05-19T10:43:50;17.37;;;9.40;;
3463;SDS011;3551;41.578;24.706;2023-05-19T10:46:23;16.67;;;11.13;;
3463;SDS011;3551;41.578;24.706;2023-05-19T10:48:52;35.23;;;11.63;;
3463;SDS011;3551;41.578;24.706;2023-05-19T10:51:19;20.20;;;9.60;;
3463;SDS011;3551;41.578;24.706;2023-05-19T10:53:52;16.40;;;9.17;;
3463;SDS011;3551;41.578;24.706;2023-05-19T10:56:27;16.33;;;9.50;;
3463;SDS011;3551;41.578;24.706;2023-05-19T10:58:59;13.60;;;8.97;;
3463;SDS011;3551;41.578;24.706;2023-05-19T11:01:30;22.37;;;8.90;;
3463;SDS011;3551;41.578;24.706;2023-05-19T11:04:03;16.53;;;9.93;;
3463;SDS011;3551;41.578;24.706;2023-05-19T11:06:31;12.87;;;8.80;;
3463;SDS011;3551;41.578;24.706;2023-05-19T11:09:08;13.77;;;8.80;;
3463;SDS011;3551;41.578;24.706;2023-05-19T11:11:44;11.23;;;7.63;;
3463;SDS011;3551;41.578;24.706;2023-05-19T11:14:14;20.53;;;9.90;;
3463;SDS011;3551;41.578;24.706;2023-05-19T11:16:45;13.83;;;8.17;;
3463;SDS011;3551;41.578;24.706;2023-05-19T11:19:16;14.60;;;8.57;;
3463;SDS011;3551;41.578;24.706;2023-05-19T11:21:47;16.03;;;11.00;;
3463;SDS011;3551;41.578;24.706;2023-05-19T11:24:31;21.20;;;11.70;;
3463;SDS011;3551;41.578;24.706;2023-05-19T11:26:59;15.63;;;10.03;;
3463;SDS011;3551;41.578;24.706;2023-05-19T11:29:48;11.90;;;8.50;;
3463;SDS011;3551;41.578;24.706;2023-05-19T11:32:15;10.40;;;7.07;;
3463;SDS011;3551;41.578;24.706;2023-05-19T11:34:42;12.17;;;7.70;;
3463;SDS011;3551;41.578;24.706;2023-05-19T11:37:10;11.00;;;7.50;;
3463;SDS011;3551;41.578;24.706;2023-05-19T11:39:38;12.50;;;7.70;;
3463;SDS011;3551;41.578;24.706;2023-05-19T11:42:05;12.97;;;8.57;;
3463;SDS011;3551;41.578;24.706;2023-05-19T11:44:35;16.07;;;8.63;;
3463;SDS011;3551;41.578;24.706;2023-05-19T11:47:05;14.63;;;9.23;;
3463;SDS011;3551;41.578;24.706;2023-05-19T11:49:32;12.73;;;8.27;;
3463;SDS011;3551;41.578;24.706;2023-05-19T11:52:00;15.03;;;9.20;;
3463;SDS011;3551;41.578;24.706;2023-05-19T11:54:28;14.07;;;8.43;;
3463;SDS011;3551;41.578;24.706;2023-05-19T11:56:58;16.80;;;7.83;;
3463;SDS011;3551;41.578;24.706;2023-05-19T11:59:30;11.03;;;8.40;;
3463;SDS011;3551;41.578;24.706;2023-05-19T12:01:59;10.10;;;6.47;;
3463;SDS011;3551;41.578;24.706;2023-05-19T12:04:32;13.50;;;6.77;;
3463;SDS011;3551;41.578;24.706;2023-05-19T12:07:00;11.00;;;6.63;;
3463;SDS011;3551;41.578;24.706;2023-05-19T12:09:27;12.43;;;6.67;;
3463;SDS011;3551;41.578;24.706;2023-05-19T12:11:57;11.10;;;7.50;;
3463;SDS011;3551;41.578;24.706;2023-05-19T12:14:24;7.87;;;5.57;;
3463;SDS011;3551;41.578;24.706;2023-05-19T12:16:52;9.77;;;6.30;;
3463;SDS011;3551;41.578;24.706;2023-05-19T12:19:21;10.37;;;7.10;;
3463;SDS011;3551;41.578;24.706;2023-05-19T12:21:51;9.20;;;6.17;;
3463;SDS011;3551;41.578;24.706;2023-05-19T12:24:18;12.20;;;7.07;;
3463;SDS011;3551;41.578;24.706;2023-05-19T12:26:47;13.30;;;7.80;;
3463;SDS011;3551;41.578;24.706;2023-05-19T12:29:14;8.50;;;5.40;;
3463;SDS011;3551;41.578;24.706;2023-05-19T12:31:41;10.60;;;7.47;;
3463;SDS011;3551;41.578;24.706;2023-05-19T12:34:13;10.47;;;6.60;;
3463;SDS011;3551;41.578;24.706;2023-05-19T12:36:41;10.30;;;6.50;;
3463;SDS011;3551;41.578;24.706;2023-05-19T12:39:09;10.17;;;6.30;;
3463;SDS011;3551;41.578;24.706;2023-05-19T12:41:37;8.33;;;5.87;;
3463;SDS011;3551;41.578;24.706;2023-05-19T12:44:12;16.33;;;7.53;;
3463;SDS011;3551;41.578;24.706;2023-05-19T12:46:42;14.60;;;7.70;;
3463;SDS011;3551;41.578;24.706;2023-05-19T12:49:12;9.90;;;6.57;;
3463;SDS011;3551;41.578;24.706;2023-05-19T12:51:39;11.03;;;6.50;;
3463;SDS011;3551;41.578;24.706;2023-05-19T12:54:06;12.00;;;6.80;;
3463;SDS011;3551;41.578;24.706;2023-05-19T12:56:35;10.53;;;6.53;;
3463;SDS011;3551;41.578;24.706;2023-05-19T12:59:02;8.37;;;6.00;;
3463;SDS011;3551;41.578;24.706;2023-05-19T13:01:29;9.03;;;5.80;;
3463;SDS011;3551;41.578;24.706;2023-05-19T13:03:58;11.97;;;6.90;;
3463;SDS011;3551;41.578;24.706;2023-05-19T13:06:25;10.13;;;7.30;;
3463;SDS011;3551;41.578;24.706;2023-05-19T13:08:52;12.20;;;6.57;;
3463;SDS011;3551;41.578;24.706;2023-05-19T13:11:19;8.10;;;5.50;;
3463;SDS011;3551;41.578;24.706;2023-05-19T13:13:47;13.13;;;6.87;;
3463;SDS011;3551;41.578;24.706;2023-05-19T13:16:14;9.50;;;6.03;;
3463;SDS011;3551;41.578;24.706;2023-05-19T13:18:41;9.77;;;6.80;;
3463;SDS011;3551;41.578;24.706;2023-05-19T13:21:08;7.90;;;5.23;;
3463;SDS011;3551;41.578;24.706;2023-05-19T13:23:38;8.50;;;6.80;;
3463;SDS011;3551;41.578;24.706;2023-05-19T13:26:05;15.20;;;6.80;;
3463;SDS011;3551;41.578;24.706;2023-05-19T13:28:32;15.73;;;7.83;;
3463;SDS011;3551;41.578;24.706;2023-05-19T13:31:01;12.27;;;7.00;;
3463;SDS011;3551;41.578;24.706;2023-05-19T13:33:28;10.53;;;7.30;;
3463;SDS011;3551;41.578;24.706;2023-05-19T13:35:58;11.83;;;7.17;;
3463;SDS011;3551;41.578;24.706;2023-05-19T13:38:35;15.43;;;7.40;;
3463;SDS011;3551;41.578;24.706;2023-05-19T13:41:02;12.23;;;7.63;;
3463;SDS011;3551;41.578;24.706;2023-05-19T13:43:29;15.23;;;7.87;;
3463;SDS011;3551;41.578;24.706;2023-05-19T13:45:56;12.40;;;7.70;;
3463;SDS011;3551;41.578;24.706;2023-05-19T13:48:24;15.87;;;7.60;;
3463;SDS011;3551;41.578;24.706;2023-05-19T13:50:51;13.10;;;7.40;;
3463;SDS011;3551;41.578;24.706;2023-05-19T13:53:21;11.70;;;8.13;;
3463;SDS011;3551;41.578;24.706;2023-05-19T13:55:48;13.20;;;7.80;;
3463;SDS011;3551;41.578;24.706;2023-05-19T13:58:17;16.80;;;9.07;;
3463;SDS011;3551;41.578;24.706;2023-05-19T14:00:44;21.90;;;8.70;;
3463;SDS011;3551;41.578;24.706;2023-05-19T14:03:11;11.47;;;7.57;;
3463;SDS011;3551;41.578;24.706;2023-05-19T14:05:41;12.00;;;7.37;;
3463;SDS011;3551;41.578;24.706;2023-05-19T14:08:08;13.23;;;7.57;;
3463;SDS011;3551;41.578;24.706;2023-05-19T14:10:35;9.97;;;6.50;;
3463;SDS011;3551;41.578;24.706;2023-05-19T14:13:03;13.63;;;6.13;;
3463;SDS011;3551;41.578;24.706;2023-05-19T14:15:32;13.20;;;7.10;;
3463;SDS011;3551;41.578;24.706;2023-05-19T14:18:02;11.90;;;7.67;;
3463;SDS011;3551;41.578;24.706;2023-05-19T14:20:30;12.90;;;7.70;;
3463;SDS011;3551;41.578;24.706;2023-05-19T14:22:58;9.97;;;7.10;;
3463;SDS011;3551;41.578;24.706;2023-05-19T14:25:25;9.73;;;7.27;;
3463;SDS011;3551;41.578;24.706;2023-05-19T14:27:52;10.17;;;6.73;;
3463;SDS011;3551;41.578;24.706;2023-05-19T14:30:19;13.43;;;6.57;;
3463;SDS011;3551;41.578;24.706;2023-05-19T14:32:46;17.40;;;6.83;;
3463;SDS011;3551;41.578;24.706;2023-05-19T14:35:13;9.83;;;6.67;;
3463;SDS011;3551;41.578;24.706;2023-05-19T14:37:40;14.20;;;5.47;;
3463;SDS011;3551;41.578;24.706;2023-05-19T14:40:09;9.57;;;6.37;;
3463;SDS011;3551;41.578;24.706;2023-05-19T14:42:36;10.93;;;7.40;;
3463;SDS011;3551;41.578;24.706;2023-05-19T14:45:04;10.20;;;6.53;;
3463;SDS011;3551;41.578;24.706;2023-05-19T14:47:31;9.93;;;6.90;;
3463;SDS011;3551;41.578;24.706;2023-05-19T14:49:58;9.03;;;6.00;;
3463;SDS011;3551;41.578;24.706;2023-05-19T14:52:25;11.80;;;6.40;;
3463;SDS011;3551;41.578;24.706;2023-05-19T14:54:52;27.00;;;6.90;;
3463;SDS011;3551;41.578;24.706;2023-05-19T14:57:21;8.40;;;5.60;;
3463;SDS011;3551;41.578;24.706;2023-05-19T14:59:48;9.40;;;6.07;;
3463;SDS011;3551;41.578;24.706;2023-05-19T15:02:15;11.30;;;6.07;;
3463;SDS011;3551;41.578;24.706;2023-05-19T15:04:42;13.50;;;5.73;;
3463;SDS011;3551;41.578;24.706;2023-05-19T15:07:09;12.83;;;6.90;;
3463;SDS011;3551;41.578;24.706;2023-05-19T15:09:36;13.27;;;8.03;;
3463;SDS011;3551;41.578;24.706;2023-05-19T15:12:03;14.00;;;7.43;;
3463;SDS011;3551;41.578;24.706;2023-05-19T15:14:32;15.70;;;8.30;;
3463;SDS011;3551;41.578;24.706;2023-05-19T15:16:59;12.90;;;7.20;;
3463;SDS011;3551;41.578;24.706;2023-05-19T15:22:07;15.47;;;8.10;;
3463;SDS011;3551;41.578;24.706;2023-05-19T15:24:48;14.80;;;8.80;;
3463;SDS011;3551;41.578;24.706;2023-05-19T15:27:15;14.50;;;7.43;;
3463;SDS011;3551;41.578;24.706;2023-05-19T15:29:43;13.97;;;8.00;;
3463;SDS011;3551;41.578;24.706;2023-05-19T15:32:10;22.77;;;8.73;;
3463;SDS011;3551;41.578;24.706;2023-05-19T15:34:37;12.20;;;8.00;;
3463;SDS011;3551;41.578;24.706;2023-05-19T15:37:04;16.37;;;8.90;;
3463;SDS011;3551;41.578;24.706;2023-05-19T15:39:31;12.80;;;8.00;;
3463;SDS011;3551;41.578;24.706;2023-05-19T15:41:59;15.80;;;8.93;;
3463;SDS011;3551;41.578;24.706;2023-05-19T15:44:26;20.13;;;9.00;;
3463;SDS011;3551;41.578;24.706;2023-05-19T15:46:55;15.73;;;9.00;;
3463;SDS011;3551;41.578;24.706;2023-05-19T15:49:21;13.60;;;9.27;;
3463;SDS011;3551;41.578;24.706;2023-05-19T15:51:49;16.57;;;9.67;;
3463;SDS011;3551;41.578;24.706;2023-05-19T15:54:16;14.47;;;9.53;;
3463;SDS011;3551;41.578;24.706;2023-05-19T15:56:43;22.53;;;9.53;;
3463;SDS011;3551;41.578;24.706;2023-05-19T15:59:09;15.90;;;9.37;;
3463;SDS011;3551;41.578;24.706;2023-05-19T16:01:36;13.57;;;9.30;;
3463;SDS011;3551;41.578;24.706;2023-05-19T16:04:05;12.60;;;9.40;;
3463;SDS011;3551;41.578;24.706;2023-05-19T16:06:31;20.27;;;11.70;;
3463;SDS011;3551;41.578;24.706;2023-05-19T16:08:58;18.63;;;10.63;;
3463;SDS011;3551;41.578;24.706;2023-05-19T16:11:26;16.90;;;11.50;;
3463;SDS011;3551;41.578;24.706;2023-05-19T16:13:53;21.77;;;12.37;;
3463;SDS011;3551;41.578;24.706;2023-05-19T16:16:20;16.07;;;10.70;;
3463;SDS011;3551;41.578;24.706;2023-05-19T16:18:46;17.00;;;10.37;;
3463;SDS011;3551;41.578;24.706;2023-05-19T16:21:15;14.27;;;8.83;;
3463;SDS011;3551;41.578;24.706;2023-05-19T16:23:42;14.83;;;8.57;;
3463;SDS011;3551;41.578;24.706;2023-05-19T16:26:09;17.77;;;9.03;;
3463;SDS011;3551;41.578;24.706;2023-05-19T16:28:36;15.63;;;8.93;;
3463;SDS011;3551;41.578;24.706;2023-05-19T16:31:02;14.83;;;9.83;;
3463;SDS011;3551;41.578;24.706;2023-05-19T16:33:29;15.80;;;10.20;;
3463;SDS011;3551;41.578;24.706;2023-05-19T16:35:56;15.23;;;9.77;;
3463;SDS011;3551;41.578;24.706;2023-05-19T16:38:25;17.10;;;8.47;;
3463;SDS011;3551;41.578;24.706;2023-05-19T16:40:52;14.20;;;9.00;;
3463;SDS011;3551;41.578;24.706;2023-05-19T16:43:19;16.27;;;8.97;;
3463;SDS011;3551;41.578;24.706;2023-05-19T16:45:46;13.90;;;8.90;;
3463;SDS011;3551;41.578;24.706;2023-05-19T16:48:13;13.50;;;8.63;;
3463;SDS011;3551;41.578;24.706;2023-05-19T16:50:40;16.20;;;7.90;;
3463;SDS011;3551;41.578;24.706;2023-05-19T16:53:07;13.40;;;9.27;;
3463;SDS011;3551;41.578;24.706;2023-05-19T16:55:35;11.70;;;8.03;;
3463;SDS011;3551;41.578;24.706;2023-05-19T16:58:02;11.40;;;8.70;;
3463;SDS011;3551;41.578;24.706;2023-05-19T17:00:29;14.00;;;9.10;;
3463;SDS011;3551;41.578;24.706;2023-05-19T17:02:56;19.43;;;10.23;;
3463;SDS011;3551;41.578;24.706;2023-05-19T17:05:23;12.17;;;9.03;;
3463;SDS011;3551;41.578;24.706;2023-05-19T17:07:51;18.87;;;9.90;;
3463;SDS011;3551;41.578;24.706;2023-05-19T17:10:18;11.80;;;8.50;;
3463;SDS011;3551;41.578;24.706;2023-05-19T17:12:46;16.97;;;8.77;;
3463;SDS011;3551;41.578;24.706;2023-05-19T17:15:13;11.53;;;8.90;;
3463;SDS011;3551;41.578;24.706;2023-05-19T17:17:40;16.03;;;9.23;;
3463;SDS011;3551;41.578;24.706;2023-05-19T17:20:08;13.03;;;8.60;;
3463;SDS011;3551;41.578;24.706;2023-05-19T17:22:35;18.83;;;9.77;;
3463;SDS011;3551;41.578;24.706;2023-05-19T17:25:02;15.90;;;9.73;;
3463;SDS011;3551;41.578;24.706;2023-05-19T17:27:30;18.57;;;9.13;;
3463;SDS011;3551;41.578;24.706;2023-05-19T17:29:58;17.53;;;10.70;;
3463;SDS011;3551;41.578;24.706;2023-05-19T17:32:25;19.57;;;10.63;;
3463;SDS011;3551;41.578;24.706;2023-05-19T17:34:54;15.90;;;10.40;;
3463;SDS011;3551;41.578;24.706;2023-05-19T17:37:21;16.07;;;10.63;;
3463;SDS011;3551;41.578;24.706;2023-05-19T17:39:49;18.23;;;11.67;;
3463;SDS011;3551;41.578;24.706;2023-05-19T17:42:16;21.60;;;9.70;;
3463;SDS011;3551;41.578;24.706;2023-05-19T17:44:43;20.23;;;10.20;;
3463;SDS011;3551;41.578;24.706;2023-05-19T17:47:11;18.00;;;10.90;;
3463;SDS011;3551;41.578;24.706;2023-05-19T17:49:38;14.97;;;10.20;;
3463;SDS011;3551;41.578;24.706;2023-05-19T17:52:06;18.97;;;10.03;;
3463;SDS011;3551;41.578;24.706;2023-05-19T17:54:34;26.33;;;12.37;;
3463;SDS011;3551;41.578;24.706;2023-05-19T17:57:01;17.37;;;12.10;;
3463;SDS011;3551;41.578;24.706;2023-05-19T17:59:33;19.90;;;11.80;;
3463;SDS011;3551;41.578;24.706;2023-05-19T18:02:00;20.10;;;12.60;;
3463;SDS011;3551;41.578;24.706;2023-05-19T18:04:29;18.27;;;12.27;;
3463;SDS011;3551;41.578;24.706;2023-05-19T18:06:57;17.70;;;11.70;;
3463;SDS011;3551;41.578;24.706;2023-05-19T18:09:25;20.67;;;12.00;;
3463;SDS011;3551;41.578;24.706;2023-05-19T18:11:53;18.37;;;10.53;;
3463;SDS011;3551;41.578;24.706;2023-05-19T18:14:20;19.60;;;11.20;;
3463;SDS011;3551;41.578;24.706;2023-05-19T18:16:47;20.00;;;11.90;;
3463;SDS011;3551;41.578;24.706;2023-05-19T18:19:14;16.50;;;10.23;;
3463;SDS011;3551;41.578;24.706;2023-05-19T18:21:42;17.73;;;10.93;;
3463;SDS011;3551;41.578;24.706;2023-05-19T18:24:09;24.70;;;12.43;;
3463;SDS011;3551;41.578;24.706;2023-05-19T18:26:36;24.30;;;11.20;;
3463;SDS011;3551;41.578;24.706;2023-05-19T18:29:07;15.77;;;10.30;;
3463;SDS011;3551;41.578;24.706;2023-05-19T18:31:34;16.93;;;10.60;;
3463;SDS011;3551;41.578;24.706;2023-05-19T18:34:01;16.47;;;11.23;;
3463;SDS011;3551;41.578;24.706;2023-05-19T18:36:28;20.30;;;11.03;;
3463;SDS011;3551;41.578;24.706;2023-05-19T18:38:57;17.73;;;11.20;;
3463;SDS011;3551;41.578;24.706;2023-05-19T18:41:24;20.13;;;11.73;;
3463;SDS011;3551;41.578;24.706;2023-05-19T18:43:51;22.67;;;11.17;;
3463;SDS011;3551;41.578;24.706;2023-05-19T18:46:18;19.30;;;11.20;;
3463;SDS011;3551;41.578;24.706;2023-05-19T18:48:45;18.33;;;12.20;;
3463;SDS011;3551;41.578;24.706;2023-05-19T18:51:13;17.63;;;12.37;;
3463;SDS011;3551;41.578;24.706;2023-05-19T18:53:42;26.90;;;13.07;;
3463;SDS011;3551;41.578;24.706;2023-05-19T18:56:12;31.90;;;15.67;;
3463;SDS011;3551;41.578;24.706;2023-05-19T18:58:40;35.53;;;21.83;;
3463;SDS011;3551;41.578;24.706;2023-05-19T19:01:07;38.50;;;22.33;;
3463;SDS011;3551;41.578;24.706;2023-05-19T19:03:34;40.23;;;23.70;;
3463;SDS011;3551;41.578;24.706;2023-05-19T19:06:01;45.33;;;27.80;;
3463;SDS011;3551;41.578;24.706;2023-05-19T19:08:28;35.53;;;22.70;;
3463;SDS011;3551;41.578;24.706;2023-05-19T19:10:54;41.33;;;21.67;;
3463;SDS011;3551;41.578;24.706;2023-05-19T19:13:25;32.43;;;20.27;;
3463;SDS011;3551;41.578;24.706;2023-05-19T19:15:52;36.60;;;20.73;;
3463;SDS011;3551;41.578;24.706;2023-05-19T19:18:19;34.13;;;22.73;;
3463;SDS011;3551;41.578;24.706;2023-05-19T19:20:46;38.30;;;22.70;;
3463;SDS011;3551;41.578;24.706;2023-05-19T19:23:13;36.70;;;21.87;;
3463;SDS011;3551;41.578;24.706;2023-05-19T19:25:40;39.50;;;22.57;;
3463;SDS011;3551;41.578;24.706;2023-05-19T19:28:07;33.80;;;22.27;;